Time;durP1;ratioP1;P1;durP2;ratioP2;P2;SDS_P1;SDS_P2;PMS_P1;PMS_P2;Temp;Humidity;BMP_temperature;BMP_pressure;BME280_temperature;BME280_humidity;BME280_pressure;Samples;Min_cycle;Max_cycle;Signal;HPM_P1;HPM_P2
2023/01/23 00:01:15;;;;;;;381.65;363.40;;;-1.10;99.90;;;;;;5091362;28;20116;-72
2023/01/23 00:03:40;;;;;;;416.73;397.58;;;-1.30;99.90;;;;;;5102593;28;20081;-72
2023/01/23 00:06:10;;;;;;;414.63;395.00;;;-1.30;99.90;;;;;;5097271;28;20445;-72
2023/01/23 00:08:37;;;;;;;424.33;402.95;;;-1.30;99.90;;;;;;5103119;28;20019;-72
2023/01/23 00:11:07;;;;;;;356.27;340.02;;;-1.20;99.90;;;;;;5099567;28;20465;-71
2023/01/23 00:13:36;;;;;;;506.88;481.67;;;-1.10;99.90;;;;;;5076870;28;20031;-71
2023/01/23 00:16:06;;;;;;;559.13;531.15;;;-1.20;99.90;;;;;;5095236;28;20032;-71
2023/01/23 00:18:32;;;;;;;;;;;-1.10;99.90;;;;;;5092365;28;20032;-71
2023/01/23 00:21:02;;;;;;;314.23;297.73;;;-1.20;99.90;;;;;;5099949;28;19924;-72
2023/01/23 00:23:27;;;;;;;459.67;436.98;;;-1.30;99.90;;;;;;5093730;28;20035;-72
2023/01/23 00:25:53;;;;;;;484.27;460.10;;;-1.40;99.90;;;;;;5097792;28;20384;-72
2023/01/23 00:28:18;;;;;;;487.92;463.13;;;-1.40;99.90;;;;;;5097811;28;20054;-72
2023/01/23 00:30:44;;;;;;;355.27;338.52;;;-1.30;99.90;;;;;;5091890;28;20699;-72
2023/01/23 00:33:09;;;;;;;275.98;263.42;;;-1.40;99.90;;;;;;5104642;28;20066;-72
2023/01/23 00:35:35;;;;;;;494.70;469.83;;;-1.50;99.90;;;;;;5091929;28;20024;-72
2023/01/23 00:38:01;;;;;;;459.50;437.45;;;-1.40;99.90;;;;;;5103417;28;20031;-72
2023/01/23 00:40:26;;;;;;;487.17;461.48;;;-1.30;99.90;;;;;;5095589;28;20103;-71
2023/01/23 00:42:52;;;;;;;406.80;386.75;;;-1.40;99.90;;;;;;5100266;28;20028;-72
2023/01/23 00:45:18;;;;;;;295.30;281.13;;;-1.50;99.90;;;;;;5096144;28;20080;-72
2023/01/23 00:47:44;;;;;;;454.50;430.80;;;-1.60;99.90;;;;;;5093874;28;20039;-72
2023/01/23 00:50:10;;;;;;;456.77;434.00;;;-1.50;99.90;;;;;;5101228;28;20115;-72
2023/01/23 00:52:36;;;;;;;300.48;285.77;;;-1.50;99.90;;;;;;5096103;28;20031;-72
2023/01/23 00:55:02;;;;;;;188.90;179.20;;;-1.60;99.90;;;;;;5094126;28;20027;-72
2023/01/23 00:57:29;;;;;;;159.65;150.20;;;-1.70;99.90;;;;;;5087651;28;20124;-70
2023/01/23 00:59:54;;;;;;;199.73;190.05;;;-1.80;99.90;;;;;;5091937;28;20024;-70
2023/01/23 01:02:20;;;;;;;214.15;202.40;;;-1.60;99.90;;;;;;5101203;28;20132;-72
2023/01/23 01:04:45;;;;;;;279.05;264.83;;;-1.90;99.90;;;;;;5092897;28;20521;-71
2023/01/23 01:07:11;;;;;;;200.20;191.25;;;-1.90;99.90;;;;;;5097289;28;20038;-71
2023/01/23 01:09:37;;;;;;;144.05;136.18;;;-2.00;99.90;;;;;;5090823;28;20039;-71
2023/01/23 01:12:03;;;;;;;138.88;131.43;;;-2.00;99.90;;;;;;5090246;28;20028;-71
2023/01/23 01:14:28;;;;;;;170.57;161.10;;;-2.10;99.90;;;;;;5082545;28;20374;-71
2023/01/23 01:16:54;;;;;;;171.85;163.23;;;-2.20;99.90;;;;;;5093354;28;20027;-71
2023/01/23 01:19:19;;;;;;;171.88;162.18;;;-2.20;99.90;;;;;;5095707;28;20033;-71
2023/01/23 01:21:45;;;;;;;181.00;171.55;;;-2.20;99.90;;;;;;5093628;28;20052;-71
2023/01/23 01:24:11;;;;;;;178.55;169.20;;;-2.20;99.90;;;;;;5096145;28;20547;-71
2023/01/23 01:26:37;;;;;;;165.45;156.27;;;-2.20;99.90;;;;;;5101099;28;20027;-71
2023/01/23 01:29:03;;;;;;;165.25;156.85;;;-2.10;99.90;;;;;;5086686;28;20390;-71
2023/01/23 01:31:28;;;;;;;171.95;163.18;;;-2.20;99.90;;;;;;5099319;28;20035;-71
2023/01/23 01:33:54;;;;;;;248.25;236.55;;;-2.10;99.90;;;;;;5093125;28;20390;-71
2023/01/23 01:36:22;;;;;;;214.65;204.90;;;-2.00;99.90;;;;;;5103178;28;20036;-72
2023/01/23 01:38:47;;;;;;;217.93;206.70;;;-1.90;99.90;;;;;;5075644;28;20036;-71
2023/01/23 01:41:15;;;;;;;179.60;170.27;;;-2.00;99.90;;;;;;5100552;28;20038;-71
2023/01/23 01:43:41;;;;;;;161.98;153.25;;;-2.10;99.90;;;;;;5097980;28;20036;-72
2023/01/23 01:46:08;;;;;;;176.45;167.63;;;-2.10;99.90;;;;;;5091700;28;20041;-72
2023/01/23 01:48:52;;;;;;;181.30;172.23;;;-2.10;99.90;;;;;;5097849;28;20111;-71
2023/01/23 01:51:24;;;;;;;174.27;165.73;;;-2.00;99.90;;;;;;5091723;28;20052;-71
2023/01/23 01:54:00;;;;;;;175.60;166.50;;;-1.90;99.90;;;;;;5092330;28;20025;-71
2023/01/23 01:56:28;;;;;;;168.20;159.63;;;-2.00;99.90;;;;;;5095444;28;20012;-71
2023/01/23 01:58:55;;;;;;;148.93;139.85;;;-2.00;99.90;;;;;;5093623;28;20110;-71
2023/01/23 02:01:21;;;;;;;150.85;142.07;;;-2.00;99.90;;;;;;5094456;28;20024;-71
2023/01/23 02:03:49;;;;;;;157.60;148.57;;;-2.10;99.90;;;;;;5094553;28;20031;-72
2023/01/23 02:06:15;;;;;;;175.48;166.23;;;-2.30;99.90;;;;;;5094340;28;20043;-71
2023/01/23 02:08:53;;;;;;;183.48;173.20;;;-2.20;99.90;;;;;;5097610;28;20024;-71
2023/01/23 02:11:19;;;;;;;160.98;151.32;;;-2.30;99.90;;;;;;5105825;28;20053;-71
2023/01/23 02:13:45;;;;;;;172.23;162.32;;;-2.20;99.90;;;;;;5096210;28;20024;-71
2023/01/23 02:16:19;;;;;;;182.05;171.70;;;-2.10;99.90;;;;;;5099840;28;20034;-70
2023/01/23 02:18:48;;;;;;;203.50;192.63;;;-2.10;99.90;;;;;;5099965;28;20484;-70
2023/01/23 02:21:18;;;;;;;198.95;188.32;;;-2.00;99.90;;;;;;5094372;28;20410;-72
2023/01/23 02:23:53;;;;;;;250.70;237.63;;;-1.90;99.90;;;;;;5100906;28;20401;-71
2023/01/23 02:26:36;;;;;;;193.05;182.30;;;-2.00;99.90;;;;;;5095642;28;20028;-71
2023/01/23 02:29:03;;;;;;;245.82;232.93;;;-2.00;99.90;;;;;;5103743;28;20103;-71
2023/01/23 02:31:29;;;;;;;231.07;219.50;;;-2.00;99.90;;;;;;5097989;28;20031;-71
2023/01/23 02:33:56;;;;;;;174.93;166.13;;;-2.10;99.90;;;;;;5104011;28;20467;-71
2023/01/23 02:36:25;;;;;;;205.73;195.02;;;-2.10;99.90;;;;;;5096683;28;20032;-71
2023/01/23 02:39:06;;;;;;;237.60;224.60;;;-2.20;99.90;;;;;;5100433;28;20039;-70
2023/01/23 02:41:36;;;;;;;147.43;139.77;;;-2.20;99.90;;;;;;5100074;28;20020;-71
2023/01/23 02:44:14;;;;;;;155.23;146.60;;;-2.20;99.90;;;;;;5096639;28;20032;-70
2023/01/23 02:46:39;;;;;;;151.90;143.45;;;-2.10;99.90;;;;;;5099916;28;20020;-71
2023/01/23 02:49:05;;;;;;;197.27;187.10;;;-2.10;99.90;;;;;;5095336;28;20118;-71
2023/01/23 02:51:31;;;;;;;220.85;209.65;;;-2.10;99.90;;;;;;5107766;28;20024;-71
2023/01/23 02:53:57;;;;;;;238.73;226.77;;;-2.00;99.90;;;;;;5096450;28;20020;-71
2023/01/23 02:56:23;;;;;;;245.80;233.32;;;-2.10;99.90;;;;;;5102032;28;20048;-71
2023/01/23 03:01:34;;;;;;;217.00;204.70;;;-2.00;99.90;;;;;;5102833;28;20038;-71
2023/01/23 03:04:03;;;;;;;238.52;226.15;;;-2.10;99.90;;;;;;5100037;28;20089;-71
2023/01/23 03:06:34;;;;;;;197.75;187.38;;;-2.00;99.90;;;;;;5096052;28;20028;-71
2023/01/23 03:09:02;;;;;;;170.90;161.85;;;-2.00;99.90;;;;;;5095969;28;20047;-71
2023/01/23 03:11:27;;;;;;;152.73;144.82;;;-2.10;99.90;;;;;;5099488;28;20031;-70
2023/01/23 03:13:53;;;;;;;267.90;253.13;;;-2.10;99.90;;;;;;5100204;28;20025;-71
2023/01/23 03:16:19;;;;;;;191.95;181.85;;;-2.20;99.90;;;;;;5095867;28;20036;-71
2023/01/23 03:18:46;;;;;;;192.18;181.80;;;-2.20;99.90;;;;;;5093242;28;20059;-71
2023/01/23 03:21:11;;;;;;;189.00;179.60;;;-2.20;99.90;;;;;;5099705;28;20044;-71
2023/01/23 03:23:39;;;;;;;273.73;258.80;;;-2.10;99.90;;;;;;5095321;28;20097;-71
2023/01/23 03:26:05;;;;;;;224.95;213.10;;;-2.20;99.90;;;;;;5097547;28;20036;-71
2023/01/23 03:31:15;;;;;;;208.02;198.32;;;-2.00;99.90;;;;;;5101621;28;20043;-71
2023/01/23 03:33:42;;;;;;;182.85;172.80;;;-2.00;99.90;;;;;;5091725;28;20024;-71
2023/01/23 03:36:11;;;;;;;168.50;159.70;;;-2.10;99.90;;;;;;5101176;28;20035;-71
2023/01/23 03:38:37;;;;;;;146.48;137.15;;;-2.00;99.90;;;;;;5091512;28;20524;-71
2023/01/23 03:43:48;;;;;;;146.25;137.30;;;-1.90;99.90;;;;;;5102270;28;20035;-72
2023/01/23 03:46:14;;;;;;;274.67;256.40;;;-2.10;99.90;;;;;;5099082;28;20032;-71
2023/01/23 03:48:39;;;;;;;331.58;307.08;;;-2.30;99.90;;;;;;5100451;28;20447;-71
2023/01/23 03:51:06;;;;;;;538.15;500.58;;;-2.50;99.90;;;;;;5098069;28;20024;-71
2023/01/23 03:53:32;;;;;;;447.02;424.70;;;-2.50;99.90;;;;;;5099874;28;20088;-71
2023/01/23 03:55:57;;;;;;;327.02;310.73;;;-2.40;99.90;;;;;;5098855;28;20031;-71
2023/01/23 03:58:23;;;;;;;296.52;282.17;;;-2.20;99.90;;;;;;5095346;28;20691;-71
2023/01/23 04:00:49;;;;;;;265.55;251.95;;;-2.10;99.90;;;;;;5102390;28;20036;-71
2023/01/23 04:03:15;;;;;;;211.10;200.27;;;-2.10;99.90;;;;;;5095156;28;20032;-71
2023/01/23 04:05:40;;;;;;;231.82;220.52;;;-2.10;99.90;;;;;;5099494;28;20044;-71
2023/01/23 04:08:06;;;;;;;197.65;187.38;;;-2.00;99.90;;;;;;5095712;28;20503;-72
2023/01/23 04:10:32;;;;;;;194.80;184.60;;;-1.90;99.90;;;;;;5093882;28;20526;-71
2023/01/23 04:12:57;;;;;;;168.10;160.25;;;-2.10;99.90;;;;;;5099135;28;20016;-72
2023/01/23 04:15:23;;;;;;;187.00;175.35;;;-2.10;99.90;;;;;;5095625;28;20059;-71
2023/01/23 04:17:49;;;;;;;162.02;152.40;;;-2.20;99.90;;;;;;5095550;28;20028;-71
2023/01/23 04:20:15;;;;;;;166.50;156.43;;;-2.10;99.90;;;;;;5097078;28;20083;-71
2023/01/23 04:22:40;;;;;;;223.02;210.10;;;-2.20;99.90;;;;;;5090999;28;20028;-71
2023/01/23 04:25:07;;;;;;;213.95;202.75;;;-2.10;99.90;;;;;;5095638;28;20471;-71
2023/01/23 04:27:32;;;;;;;212.30;200.90;;;-1.90;99.90;;;;;;5090219;28;20572;-70
2023/01/23 04:29:58;;;;;;;175.85;166.15;;;-2.00;99.90;;;;;;5099071;28;20106;-71
2023/01/23 04:32:24;;;;;;;201.45;190.38;;;-1.90;99.90;;;;;;5096996;28;20028;-71
2023/01/23 04:34:50;;;;;;;205.07;195.48;;;-2.10;99.90;;;;;;5099812;28;20535;-71
2023/01/23 04:37:16;;;;;;;368.85;344.15;;;-2.20;99.90;;;;;;5098768;28;20039;-71
2023/01/23 04:39:42;;;;;;;158.90;151.55;;;-2.30;99.90;;;;;;5091467;28;20483;-70
2023/01/23 04:42:08;;;;;;;165.63;155.35;;;-2.10;99.90;;;;;;5096225;28;20043;-71
2023/01/23 04:44:33;;;;;;;197.57;187.60;;;-2.20;99.90;;;;;;5095939;28;20036;-70
2023/01/23 04:46:59;;;;;;;160.63;150.63;;;-2.00;99.90;;;;;;5106046;28;20397;-71
2023/01/23 04:49:26;;;;;;;170.93;161.40;;;-2.20;99.90;;;;;;5097227;28;20024;-71
2023/01/23 04:51:52;;;;;;;238.18;225.32;;;-2.30;99.90;;;;;;5095895;28;20021;-71
2023/01/23 04:54:19;;;;;;;131.77;124.30;;;-2.20;99.90;;;;;;5096278;28;20032;-71
2023/01/23 04:56:45;;;;;;;151.63;142.02;;;-2.30;99.90;;;;;;5082451;28;20107;-71
2023/01/23 04:59:11;;;;;;;163.23;153.25;;;-2.60;99.90;;;;;;5082258;28;20123;-71
2023/01/23 05:01:37;;;;;;;170.80;160.75;;;-2.50;99.90;;;;;;5092304;28;20024;-71
2023/01/23 05:04:03;;;;;;;156.50;147.32;;;-2.40;99.90;;;;;;5098806;28;20800;-71
2023/01/23 05:06:29;;;;;;;176.07;166.23;;;-2.30;99.90;;;;;;5089929;28;20020;-71
2023/01/23 05:08:55;;;;;;;154.68;145.60;;;-2.30;99.90;;;;;;5092261;28;20020;-71
2023/01/23 05:11:21;;;;;;;142.93;134.57;;;-2.50;99.90;;;;;;5072923;28;20024;-74
2023/01/23 05:13:47;;;;;;;156.27;147.13;;;-2.60;99.90;;;;;;5087874;28;20478;-79
2023/01/23 05:16:13;;;;;;;155.82;147.00;;;-2.90;99.90;;;;;;5092644;28;20114;-78
2023/01/23 05:18:39;;;;;;;157.23;148.05;;;-3.10;99.90;;;;;;5085284;28;20571;-73
2023/01/23 05:21:05;;;;;;;164.68;154.73;;;-3.20;99.90;;;;;;5095613;28;20059;-77
2023/01/23 05:23:30;;;;;;;138.07;129.18;;;-3.30;99.90;;;;;;5086317;28;20021;-72
2023/01/23 05:25:56;;;;;;;137.60;128.88;;;-3.30;99.90;;;;;;5087600;28;20034;-71
2023/01/23 05:28:21;;;;;;;221.48;209.65;;;-3.10;99.90;;;;;;5092614;28;20032;-71
2023/01/23 05:30:47;;;;;;;191.57;181.13;;;-3.00;99.90;;;;;;5089652;28;20169;-71
2023/01/23 05:33:13;;;;;;;179.02;169.52;;;-2.80;99.90;;;;;;5093545;28;20115;-73
2023/01/23 05:35:39;;;;;;;209.73;198.15;;;-2.80;99.90;;;;;;5086193;28;20044;-64
2023/01/23 05:38:05;;;;;;;137.68;128.75;;;-2.90;99.90;;;;;;5094251;28;20039;-70
2023/01/23 05:40:31;;;;;;;357.80;336.77;;;-3.10;99.90;;;;;;5085633;28;20036;-75
2023/01/23 05:42:56;;;;;;;155.98;147.55;;;-3.20;99.90;;;;;;5085720;28;20028;-72
2023/01/23 05:45:22;;;;;;;177.75;167.38;;;-3.00;99.90;;;;;;5066298;28;20029;-71
2023/01/23 05:47:47;;;;;;;139.20;131.10;;;-2.90;99.90;;;;;;5082186;28;20032;-71
2023/01/23 05:50:16;;;;;;;142.55;134.57;;;-2.80;99.90;;;;;;5084369;28;20027;-72
2023/01/23 05:52:42;;;;;;;136.88;127.72;;;-2.80;99.90;;;;;;5078659;28;20024;-72
2023/01/23 05:55:08;;;;;;;166.85;158.15;;;-2.90;99.90;;;;;;5090904;28;20148;-71
2023/01/23 05:57:34;;;;;;;199.13;188.32;;;-2.90;99.90;;;;;;5095453;28;20036;-72
2023/01/23 06:00:00;;;;;;;191.23;180.80;;;-2.70;99.90;;;;;;5089161;28;20024;-72
2023/01/23 06:02:26;;;;;;;148.88;139.93;;;-2.70;99.90;;;;;;5097756;28;20032;-72
2023/01/23 06:04:51;;;;;;;146.93;137.77;;;-2.70;99.90;;;;;;5095191;28;20499;-72
2023/01/23 06:07:18;;;;;;;169.82;161.15;;;-2.80;99.90;;;;;;5101072;28;20039;-72
2023/01/23 06:09:44;;;;;;;146.23;137.90;;;-2.70;99.90;;;;;;5093340;28;20438;-71
2023/01/23 06:12:11;;;;;;;144.85;137.60;;;-2.70;99.90;;;;;;5082141;28;20559;-71
2023/01/23 06:14:37;;;;;;;181.10;171.18;;;-2.70;99.90;;;;;;5092381;28;20044;-72
2023/01/23 06:17:03;;;;;;;177.25;167.50;;;-2.60;99.90;;;;;;5091672;28;20020;-72
2023/01/23 06:19:28;;;;;;;303.98;288.13;;;-2.50;99.90;;;;;;5102874;28;20171;-71
2023/01/23 06:21:54;;;;;;;187.15;176.48;;;-2.50;99.90;;;;;;5090502;28;20112;-71
2023/01/23 06:24:20;;;;;;;154.80;147.38;;;-2.50;99.90;;;;;;5093922;28;20038;-72
2023/01/23 06:26:45;;;;;;;161.10;153.48;;;-2.60;99.90;;;;;;5099397;28;20028;-77
2023/01/23 06:29:11;;;;;;;162.48;152.93;;;-2.50;99.90;;;;;;5088811;28;20426;-76
2023/01/23 06:31:37;;;;;;;264.45;251.07;;;-2.50;99.90;;;;;;5101632;28;20133;-76
2023/01/23 06:34:02;;;;;;;273.42;259.50;;;-2.30;99.90;;;;;;5093372;28;20036;-76
2023/01/23 06:36:28;;;;;;;295.55;280.92;;;-2.40;99.90;;;;;;5080698;28;20032;-76
2023/01/23 06:38:54;;;;;;;234.02;223.00;;;-2.20;99.90;;;;;;5100270;28;20119;-76
2023/01/23 06:41:20;;;;;;;281.63;267.98;;;-2.30;99.90;;;;;;5094586;28;20107;-73
2023/01/23 06:43:46;;;;;;;302.60;287.13;;;-2.20;99.90;;;;;;5100902;28;20494;-72
2023/01/23 06:46:12;;;;;;;207.02;196.63;;;-2.40;99.90;;;;;;5090885;28;20064;-72
2023/01/23 06:48:37;;;;;;;160.20;152.32;;;-2.40;99.90;;;;;;5100954;28;20366;-72
2023/01/23 06:51:04;;;;;;;178.52;169.07;;;-2.40;99.90;;;;;;5097836;28;20035;-72
2023/01/23 06:53:30;;;;;;;265.52;253.32;;;-2.30;99.90;;;;;;5100368;28;20091;-71
2023/01/23 06:56:07;;;;;;;335.08;318.50;;;-2.20;99.90;;;;;;5100951;28;20024;-72
2023/01/23 06:58:33;;;;;;;193.77;184.90;;;-2.10;99.90;;;;;;5101333;28;20106;-71
2023/01/23 07:01:07;;;;;;;201.90;193.05;;;-2.10;99.90;;;;;;5102590;28;20129;-72
2023/01/23 07:03:33;;;;;;;269.98;249.68;;;-2.10;99.90;;;;;;5098623;28;20032;-71
2023/01/23 07:06:02;;;;;;;349.23;330.05;;;-2.20;99.90;;;;;;5101730;28;20024;-77
2023/01/23 07:08:27;;;;;;;218.80;208.90;;;-2.20;99.90;;;;;;5081016;28;20032;-75
2023/01/23 07:10:53;;;;;;;328.95;313.75;;;-2.20;99.90;;;;;;5102351;28;20030;-79
2023/01/23 07:13:20;;;;;;;276.55;264.13;;;-2.20;99.90;;;;;;5080395;28;20123;-79
2023/01/23 07:15:46;;;;;;;304.63;289.83;;;-2.00;99.90;;;;;;5089136;28;20039;-79
2023/01/23 07:18:12;;;;;;;406.13;387.13;;;-2.00;99.90;;;;;;5100662;28;20035;-79
2023/01/23 07:20:38;;;;;;;506.05;480.60;;;-2.00;99.90;;;;;;5095230;28;20406;-80
2023/01/23 07:23:03;;;;;;;402.50;384.38;;;-2.10;99.90;;;;;;5099751;28;20046;-78
2023/01/23 07:25:29;;;;;;;467.77;445.55;;;-1.90;99.90;;;;;;5094337;28;20043;-80
2023/01/23 07:27:55;;;;;;;275.90;262.23;;;-2.00;99.90;;;;;;5101568;28;20032;-78
2023/01/23 07:30:20;;;;;;;324.02;309.63;;;-2.00;99.90;;;;;;5084867;28;20037;-78
2023/01/23 07:32:46;;;;;;;438.38;417.50;;;-2.10;99.90;;;;;;5097317;28;20039;-80
2023/01/23 07:35:12;;;;;;;414.52;394.52;;;-2.10;99.90;;;;;;5101685;28;20027;-78
2023/01/23 07:37:37;;;;;;;285.45;270.95;;;-2.10;99.90;;;;;;5096019;28;20071;-78
2023/01/23 07:40:04;;;;;;;406.92;386.25;;;-2.00;99.90;;;;;;5094669;28;20607;-78
2023/01/23 07:42:30;;;;;;;323.20;309.02;;;-2.00;99.90;;;;;;5100544;28;20115;-79
2023/01/23 07:44:55;;;;;;;486.17;463.02;;;-1.90;99.90;;;;;;5098183;28;20126;-77
2023/01/23 07:47:21;;;;;;;365.00;348.65;;;-1.80;99.90;;;;;;5101669;28;20040;-77
2023/01/23 07:49:47;;;;;;;415.27;388.13;;;-1.80;99.90;;;;;;5095166;28;20537;-79
2023/01/23 07:52:13;;;;;;;373.58;354.60;;;-1.90;99.90;;;;;;5103709;28;20034;-78
2023/01/23 07:54:42;;;;;;;321.88;307.70;;;-1.90;99.90;;;;;;5096298;28;20063;-77
2023/01/23 07:57:07;;;;;;;499.77;476.30;;;-1.80;99.90;;;;;;5099810;28;20044;-77
2023/01/23 07:59:33;;;;;;;557.67;527.75;;;-1.80;99.90;;;;;;5099294;28;20043;-76
2023/01/23 08:01:58;;;;;;;346.27;314.60;;;-1.90;99.90;;;;;;5098095;28;20413;-77
2023/01/23 08:04:24;;;;;;;463.60;440.65;;;-1.80;99.90;;;;;;5095041;28;20040;-78
2023/01/23 08:06:50;;;;;;;472.42;449.75;;;-1.70;99.90;;;;;;5091300;28;20039;-80
2023/01/23 08:09:16;;;;;;;591.47;561.80;;;-1.70;99.90;;;;;;5094314;28;20112;-78
2023/01/23 08:11:52;;;;;;;463.95;441.83;;;-1.70;99.90;;;;;;5080377;28;20516;-87
2023/01/23 08:14:26;;;;;;;254.93;244.02;;;-1.70;99.90;;;;;;5082561;28;20039;-86
2023/01/23 08:16:53;;;;;;;431.10;411.50;;;-1.70;99.90;;;;;;5092724;28;20038;-86
2023/01/23 08:19:19;;;;;;;475.58;452.67;;;-1.60;99.90;;;;;;5092751;28;20024;-85
2023/01/23 08:21:46;;;;;;;259.38;248.52;;;-1.60;99.90;;;;;;5092373;28;20035;-86
2023/01/23 08:24:12;;;;;;;463.55;440.70;;;-1.50;99.90;;;;;;5091532;28;20055;-85
2023/01/23 08:26:40;;;;;;;511.73;487.17;;;-1.60;99.90;;;;;;5095291;28;20027;-85
2023/01/23 08:29:06;;;;;;;446.50;413.10;;;-1.60;99.90;;;;;;5097206;28;20756;-84
2023/01/23 08:31:32;;;;;;;373.45;356.30;;;-1.60;99.90;;;;;;5098761;28;20027;-84
2023/01/23 08:33:58;;;;;;;310.83;296.50;;;-1.60;99.90;;;;;;5101666;28;20036;-80
2023/01/23 08:36:24;;;;;;;311.60;297.45;;;-1.60;99.90;;;;;;5093054;28;20059;-80
2023/01/23 08:38:49;;;;;;;469.95;448.13;;;-1.60;99.90;;;;;;5101660;28;20496;-81
2023/01/23 08:41:15;;;;;;;395.92;376.33;;;-1.60;99.90;;;;;;5091948;28;20111;-80
2023/01/23 08:43:42;;;;;;;527.78;487.45;;;-1.60;99.90;;;;;;5102334;28;20049;-81
2023/01/23 08:46:08;;;;;;;344.27;327.80;;;-1.70;99.90;;;;;;5094684;28;20038;-79
2023/01/23 08:48:39;;;;;;;579.50;550.55;;;-1.60;99.90;;;;;;5095894;28;20525;-84
2023/01/23 08:51:07;;;;;;;406.98;386.42;;;-1.60;99.90;;;;;;5099576;28;20039;-84
2023/01/23 08:53:34;;;;;;;473.63;446.52;;;-1.50;99.90;;;;;;5093075;28;20414;-84
2023/01/23 08:56:02;;;;;;;489.02;464.02;;;-1.50;99.90;;;;;;5104800;28;20612;-84
2023/01/23 08:58:27;;;;;;;542.55;513.70;;;-1.50;99.90;;;;;;5092515;28;20501;-84
2023/01/23 09:00:53;;;;;;;553.05;521.35;;;-1.50;99.90;;;;;;5096146;28;20035;-83
2023/01/23 09:03:19;;;;;;;475.80;453.10;;;-1.50;99.90;;;;;;5097745;28;20036;-83
2023/01/23 09:05:45;;;;;;;361.33;339.10;;;-1.40;99.90;;;;;;5100214;28;20497;-85
2023/01/23 09:08:10;;;;;;;538.28;511.55;;;-1.40;99.90;;;;;;5099595;28;20035;-66
2023/01/23 09:10:36;;;;;;;192.77;182.00;;;-1.20;99.90;;;;;;5090077;28;20031;-70
2023/01/23 09:13:02;;;;;;;367.73;348.33;;;-1.10;99.90;;;;;;5101068;28;20494;-70
2023/01/23 09:15:28;;;;;;;189.20;181.00;;;-1.00;99.90;;;;;;5092359;28;20115;-70
2023/01/23 09:17:54;;;;;;;415.50;388.83;;;-0.90;99.90;;;;;;5095507;28;20153;-70
2023/01/23 09:20:20;;;;;;;592.90;543.72;;;-0.90;99.90;;;;;;5098603;28;20055;-70
2023/01/23 09:22:45;;;;;;;314.30;297.52;;;-1.00;99.90;;;;;;5092493;28;20027;-70
2023/01/23 09:25:11;;;;;;;497.50;473.20;;;-1.10;99.90;;;;;;5101293;28;20084;-70
2023/01/23 09:27:37;;;;;;;202.45;192.93;;;-1.30;99.90;;;;;;5091032;28;20655;-70
2023/01/23 09:30:03;;;;;;;42.05;30.02;;;-1.30;99.90;;;;;;5097852;28;20143;-69
2023/01/23 09:32:29;;;;;;;192.90;183.93;;;-1.30;99.90;;;;;;5096227;28;20157;-70
2023/01/23 09:34:55;;;;;;;127.95;122.15;;;-1.20;99.90;;;;;;5095032;28;20099;-70
2023/01/23 09:37:20;;;;;;;152.07;143.88;;;-1.10;99.90;;;;;;5103678;28;20032;-70
2023/01/23 09:39:46;;;;;;;169.90;161.85;;;-1.10;99.90;;;;;;5092876;28;20024;-70
2023/01/23 09:42:19;;;;;;;181.98;172.60;;;-1.10;99.90;;;;;;5104066;28;20040;-70
2023/01/23 09:44:49;;;;;;;190.88;181.52;;;-1.00;99.90;;;;;;5093403;28;20028;-69
2023/01/23 09:47:37;;;;;;;216.10;204.90;;;-1.10;99.90;;;;;;5096211;28;20023;-70
2023/01/23 09:50:07;;;;;;;138.45;132.13;;;-1.10;99.90;;;;;;5096616;28;20111;-70
2023/01/23 09:52:37;;;;;;;235.93;223.20;;;-1.00;99.90;;;;;;5082648;28;20444;-70
2023/01/23 09:55:21;;;;;;;149.13;141.52;;;-0.90;99.90;;;;;;5098092;28;20497;-70
2023/01/23 09:57:53;;;;;;;162.50;151.85;;;-1.00;99.90;;;;;;5094990;28;20532;-70
2023/01/23 10:00:32;;;;;;;140.32;133.50;;;-1.00;99.90;;;;;;5099232;28;20043;-70
2023/01/23 10:03:10;;;;;;;159.45;149.80;;;-1.00;99.90;;;;;;5089098;28;20746;-70
2023/01/23 10:05:41;;;;;;;159.68;151.25;;;-1.00;99.90;;;;;;5095392;28;20084;-70
2023/01/23 10:08:37;;;;;;;140.27;132.70;;;-1.10;99.90;;;;;;5090930;28;20114;-69
2023/01/23 10:11:07;;;;;;;102.93;97.03;;;-1.00;99.90;;;;;;5097563;28;21269;-69
2023/01/23 10:13:42;;;;;;;113.70;108.32;;;-0.90;99.90;;;;;;5091496;28;21404;-70
2023/01/23 10:16:08;;;;;;;393.02;368.20;;;-0.70;99.90;;;;;;5099326;28;20065;-69
2023/01/23 10:19:03;;;;;;;154.60;147.60;;;-0.70;99.90;;;;;;5095168;28;20032;-70
2023/01/23 10:21:58;;;;;;;139.88;132.43;;;-0.60;99.90;;;;;;5051667;28;20055;-66
2023/01/23 10:24:47;;;;;;;228.88;215.35;;;-0.70;99.90;;;;;;5096219;28;20059;-65
2023/01/23 10:27:20;;;;;;;133.45;126.95;;;-0.80;99.90;;;;;;5102845;28;20111;-65
2023/01/23 10:30:04;;;;;;;118.82;112.53;;;-0.70;99.90;;;;;;5091420;28;20036;-67
2023/01/23 10:32:41;;;;;;;135.43;122.95;;;-0.60;99.90;;;;;;5097626;28;20028;-66
2023/01/23 10:35:15;;;;;;;196.27;182.98;;;-0.70;99.90;;;;;;5095007;28;20031;-67
2023/01/23 10:38:00;;;;;;;128.00;121.43;;;-0.60;99.90;;;;;;5093838;28;20027;-65
2023/01/23 10:43:17;;;;;;;197.70;187.00;;;-0.50;99.90;;;;;;5091022;28;20084;-82
2023/01/23 10:45:45;;;;;;;143.15;136.65;;;-0.60;99.90;;;;;;5100470;28;20028;-79
2023/01/23 10:48:30;;;;;;;123.75;116.70;;;-0.50;99.90;;;;;;5096673;28;20031;-75
2023/01/23 10:50:57;;;;;;;144.43;136.60;;;-0.40;99.90;;;;;;5101758;28;20024;-76
2023/01/23 10:53:26;;;;;;;125.00;118.95;;;-0.50;99.90;;;;;;5098340;28;20127;-76
2023/01/23 10:55:57;;;;;;;220.07;205.30;;;-0.40;99.90;;;;;;5098918;28;20055;-78
2023/01/23 10:58:37;;;;;;;156.90;149.50;;;-0.30;99.90;;;;;;5103550;28;20081;-77
2023/01/23 11:01:03;;;;;;;120.22;112.13;;;0.00;99.90;;;;;;5095135;28;20081;-76
2023/01/23 11:03:34;;;;;;;229.85;209.50;;;-0.10;99.90;;;;;;5099880;28;20035;-76
2023/01/23 11:06:05;;;;;;;202.77;191.70;;;0.00;99.90;;;;;;5089901;28;20039;-76
2023/01/23 11:08:41;;;;;;;174.40;166.07;;;0.00;99.90;;;;;;5102742;28;20485;-76
2023/01/23 11:11:13;;;;;;;158.80;150.50;;;-0.20;99.90;;;;;;5097818;28;20023;-77
2023/01/23 11:13:39;;;;;;;139.18;131.27;;;0.00;99.90;;;;;;5103554;28;20020;-75
2023/01/23 11:16:05;;;;;;;142.75;136.05;;;-0.10;99.90;;;;;;5100701;28;20027;-76
2023/01/23 11:18:35;;;;;;;195.52;182.27;;;0.00;99.90;;;;;;5096540;28;20032;-76
2023/01/23 11:21:01;;;;;;;139.88;133.05;;;-0.20;99.90;;;;;;5099765;28;20566;-79
2023/01/23 11:23:29;;;;;;;135.07;127.65;;;0.00;99.90;;;;;;5092540;28;20039;-78
2023/01/23 11:25:55;;;;;;;125.97;120.18;;;0.10;99.90;;;;;;5100103;28;20029;-76
2023/01/23 11:28:26;;;;;;;140.00;132.15;;;0.20;99.90;;;;;;5097629;28;20074;-75
2023/01/23 11:30:54;;;;;;;148.77;140.32;;;0.30;99.90;;;;;;5095030;28;20059;-74
2023/01/23 11:33:46;;;;;;;129.38;122.68;;;0.40;99.90;;;;;;5098707;28;20030;-75
2023/01/23 11:36:18;;;;;;;162.95;153.82;;;0.40;99.90;;;;;;5085022;28;20033;-76
2023/01/23 11:38:58;;;;;;;71.40;68.03;;;0.00;99.90;;;;;;5092669;28;20449;-76
2023/01/23 11:41:29;;;;;;;149.88;142.50;;;-0.20;99.90;;;;;;5090197;28;20032;-78
2023/01/23 11:43:55;;;;;;;132.55;125.72;;;-0.40;99.90;;;;;;5094024;28;20787;-76
2023/01/23 11:46:33;;;;;;;163.85;155.85;;;-0.20;99.90;;;;;;5092592;28;20036;-76
2023/01/23 11:49:26;;;;;;;120.10;112.97;;;-0.30;99.90;;;;;;5089195;28;20494;-79
2023/01/23 11:52:10;;;;;;;434.52;385.92;;;-0.20;99.90;;;;;;5091066;28;20028;-78
2023/01/23 11:55:07;;;;;;;179.27;168.52;;;-0.20;99.90;;;;;;5096450;28;20489;-78
2023/01/23 11:57:35;;;;;;;106.78;101.80;;;-0.20;99.90;;;;;;5094432;28;20024;-78
2023/01/23 12:00:16;;;;;;;107.68;101.32;;;-0.20;99.90;;;;;;5093902;28;20027;-81
2023/01/23 12:02:51;;;;;;;124.97;118.80;;;-0.30;99.90;;;;;;5088219;28;20528;-79
2023/01/23 12:06:10;;;;;;;311.60;291.02;;;-0.20;99.90;;;;;;5093435;28;20032;-78
2023/01/23 12:08:53;;;;;;;106.75;101.03;;;-0.20;99.90;;;;;;5049406;28;20032;-76
2023/01/23 12:11:21;;;;;;;154.75;145.00;;;-0.10;99.90;;;;;;5090951;28;20031;-78
2023/01/23 12:14:01;;;;;;;179.45;166.85;;;0.00;99.90;;;;;;5101706;28;20433;-78
2023/01/23 12:16:47;;;;;;;109.38;104.55;;;-0.20;99.90;;;;;;5094264;28;20080;-78
2023/01/23 12:19:15;;;;;;;220.25;205.40;;;-0.10;99.90;;;;;;5102055;28;20081;-76
2023/01/23 12:21:49;;;;;;;229.45;212.20;;;-0.10;99.90;;;;;;5092526;28;20055;-76
2023/01/23 12:25:02;;;;;;;167.48;156.02;;;-0.20;99.90;;;;;;5097438;28;20039;-89
2023/01/23 12:27:38;;;;;;;324.70;293.75;;;-0.30;99.90;;;;;;5039686;28;20032;-89